createdAt,value
2022-11-19T00:00:26.113Z,7.40
2022-11-19T00:02:57.151Z,7.40
2022-11-19T00:05:27.772Z,7.40
2022-11-19T00:07:58.323Z,7.40
2022-11-19T00:10:28.875Z,7.40
2022-11-19T00:12:59.443Z,7.40
2022-11-19T00:15:29.966Z,7.30
2022-11-19T00:18:00.598Z,7.30
2022-11-19T00:20:32.480Z,7.20
2022-11-19T00:23:03.402Z,7.20
2022-11-19T00:25:34.859Z,7.30
2022-11-19T00:28:05.524Z,7.30
2022-11-19T00:30:51.404Z,7.30
2022-11-19T00:33:08.267Z,7.30
2022-11-19T00:35:38.859Z,7.30
2022-11-19T00:38:09.364Z,7.30
2022-11-19T00:40:39.870Z,7.40
2022-11-19T00:43:27.845Z,7.50
2022-11-19T00:45:58.373Z,7.50
2022-11-19T00:48:28.907Z,7.50
2022-11-19T00:50:59.753Z,7.60
2022-11-19T00:53:30.327Z,7.60
2022-11-19T00:56:04.378Z,7.60
2022-11-19T00:58:34.884Z,7.60
2022-11-19T01:01:06.533Z,7.60
2022-11-19T01:03:38.700Z,7.50
2022-11-19T01:06:12.364Z,7.50
2022-11-19T01:08:43.053Z,7.50
2022-11-19T01:11:15.030Z,7.50
2022-11-19T01:13:45.992Z,7.60
2022-11-19T01:16:18.648Z,7.60
2022-11-19T01:18:50.976Z,7.60
2022-11-19T01:21:23.921Z,7.60
2022-11-19T01:23:54.972Z,7.50
2022-11-19T01:26:26.037Z,7.50
2022-11-19T01:28:57.256Z,7.60
2022-11-19T01:31:29.311Z,7.60
2022-11-19T01:34:00.763Z,7.60
2022-11-19T01:36:32.082Z,7.70
2022-11-19T01:39:02.759Z,7.60
2022-11-19T01:41:34.447Z,7.60
2022-11-19T01:44:07.492Z,7.70
2022-11-19T01:46:39.880Z,7.70
2022-11-19T01:49:13.699Z,7.70
2022-11-19T01:51:47.219Z,7.70
2022-11-19T01:54:21.530Z,7.70
2022-11-19T01:56:52.201Z,7.80
2022-11-19T01:59:23.398Z,7.80
2022-11-19T02:01:54.233Z,7.80
2022-11-19T02:04:25.457Z,7.80
2022-11-19T02:09:26.547Z,7.70
2022-11-19T02:12:04.295Z,7.70
2022-11-19T02:14:56.462Z,7.70
2022-11-19T02:17:33.500Z,7.70
2022-11-19T02:20:14.171Z,7.70
2022-11-19T02:23:02.075Z,7.70
2022-11-19T02:25:37.758Z,7.60
2022-11-19T02:28:25.750Z,7.70
2022-11-19T02:30:58.950Z,7.70
2022-11-19T02:33:32.799Z,7.70
2022-11-19T02:36:06.722Z,7.70
2022-11-19T02:38:40.926Z,7.70
2022-11-19T02:41:33.724Z,7.60
2022-11-19T02:44:27.903Z,7.60
2022-11-19T02:46:59.657Z,7.70
2022-11-19T02:49:33.114Z,7.70
2022-11-19T02:52:04.564Z,7.70
2022-11-19T02:54:35.192Z,7.60
2022-11-19T02:57:06.129Z,7.60
2022-11-19T02:59:57.186Z,7.70
2022-11-19T03:02:48.197Z,7.70
2022-11-19T03:05:21.743Z,7.80
2022-11-19T03:07:52.270Z,7.90
2022-11-19T03:10:25.840Z,7.90
2022-11-19T03:12:59.970Z,7.90
2022-11-19T03:15:52.217Z,7.90
2022-11-19T03:18:25.686Z,7.90
2022-11-19T03:20:59.435Z,7.90
2022-11-19T03:23:32.967Z,7.90
2022-11-19T03:26:07.251Z,7.90
2022-11-19T03:28:40.078Z,7.90
2022-11-19T03:31:11.922Z,7.80
2022-11-19T03:36:25.591Z,7.80
2022-11-19T03:38:59.048Z,7.80
2022-11-19T03:41:31.012Z,7.80
2022-11-19T03:44:04.680Z,7.80
2022-11-19T03:46:37.388Z,7.80
2022-11-19T03:49:10.581Z,7.90
2022-11-19T03:51:44.700Z,7.90
2022-11-19T03:54:15.792Z,7.90
2022-11-19T03:56:48.177Z,7.90
2022-11-19T03:59:20.989Z,7.90
2022-11-19T04:01:54.208Z,7.90
2022-11-19T04:04:37.765Z,7.90
2022-11-19T04:07:14.049Z,7.90
2022-11-19T04:09:45.651Z,7.90
2022-11-19T04:12:19.727Z,7.80
2022-11-19T04:14:51.093Z,7.80
2022-11-19T04:17:22.254Z,7.90
2022-11-19T04:19:52.766Z,7.90
2022-11-19T04:22:23.425Z,7.90
2022-11-19T04:24:54.028Z,7.90
2022-11-19T04:27:24.558Z,7.90
2022-11-19T04:29:55.074Z,7.90
2022-11-19T04:32:25.629Z,7.90
2022-11-19T04:34:56.251Z,7.90
2022-11-19T04:37:27.282Z,7.90
2022-11-19T04:39:57.797Z,7.90
2022-11-19T04:42:28.344Z,7.90
2022-11-19T04:44:59.094Z,7.90
2022-11-19T04:47:29.592Z,7.90
2022-11-19T04:50:00.110Z,7.90
2022-11-19T04:52:36.311Z,7.90
2022-11-19T04:55:04.904Z,7.90
2022-11-19T04:57:35.620Z,7.80
2022-11-19T05:00:11.183Z,7.80
2022-11-19T05:02:41.883Z,7.80
2022-11-19T05:05:13.150Z,7.80
2022-11-19T05:07:43.675Z,7.80
2022-11-19T05:10:14.515Z,7.80
2022-11-19T05:12:45.036Z,7.80
2022-11-19T05:15:15.640Z,7.80
2022-11-19T05:20:23.286Z,7.80
2022-11-19T05:22:53.795Z,7.70
2022-11-19T05:25:24.526Z,7.70
2022-11-19T05:27:55.079Z,7.60
2022-11-19T05:30:26.006Z,7.50
2022-11-19T05:32:57.157Z,7.60
2022-11-19T05:35:27.759Z,7.60
2022-11-19T05:37:58.521Z,7.50
2022-11-19T05:40:29.040Z,7.50
2022-11-19T05:43:01.126Z,7.50
2022-11-19T05:45:31.853Z,7.50
2022-11-19T05:48:02.860Z,7.50
2022-11-19T05:50:33.421Z,7.40
2022-11-19T05:53:05.353Z,7.50
2022-11-19T05:55:36.025Z,7.50
2022-11-19T05:58:06.749Z,7.50
2022-11-19T06:00:37.413Z,7.50
2022-11-19T06:03:08.939Z,7.50
2022-11-19T06:05:40.960Z,7.50
2022-11-19T06:08:11.615Z,7.50
2022-11-19T06:10:42.235Z,7.50
2022-11-19T06:13:13.114Z,7.40
2022-11-19T06:15:43.839Z,7.40
2022-11-19T06:18:14.589Z,7.30
2022-11-19T06:20:45.307Z,7.30
2022-11-19T06:23:15.985Z,7.30
2022-11-19T06:25:46.669Z,7.40
2022-11-19T06:28:17.304Z,7.40
2022-11-19T06:30:48.277Z,7.30
2022-11-19T06:33:18.795Z,7.40
2022-11-19T06:35:51.088Z,7.40
2022-11-19T06:38:21.717Z,7.40
2022-11-19T06:40:52.226Z,7.30
2022-11-19T06:43:22.862Z,7.40
2022-11-19T06:45:53.416Z,7.50
2022-11-19T06:48:24.316Z,7.50
2022-11-19T06:50:54.943Z,7.50
2022-11-19T06:53:25.665Z,7.50
2022-11-19T06:55:59.643Z,7.50
2022-11-19T06:58:31.568Z,7.50
2022-11-19T07:01:02.226Z,7.50
2022-11-19T07:03:32.812Z,7.60
2022-11-19T07:06:05.792Z,7.60
2022-11-19T07:08:37.590Z,7.60
2022-11-19T07:11:28.312Z,7.60
2022-11-19T07:14:00.484Z,7.60
2022-11-19T07:16:33.278Z,7.60
2022-11-19T07:19:06.602Z,7.60
2022-11-19T07:21:37.935Z,7.60
2022-11-19T07:24:10.944Z,7.60
2022-11-19T07:26:41.552Z,7.60
2022-11-19T07:29:15.103Z,7.50
2022-11-19T07:31:47.949Z,7.70
2022-11-19T07:34:19.686Z,7.80
2022-11-19T07:36:50.691Z,7.90
2022-11-19T07:39:21.778Z,8.00
2022-11-19T07:42:29.852Z,8.10
2022-11-19T07:47:38.679Z,8.20
2022-11-19T07:50:10.743Z,8.30
2022-11-19T07:52:41.474Z,8.40
2022-11-19T07:55:13.091Z,8.50
2022-11-19T07:57:43.586Z,8.50
2022-11-19T08:00:16.711Z,8.50
2022-11-19T08:02:47.353Z,8.50
2022-11-19T08:05:18.673Z,8.50
2022-11-19T08:07:49.181Z,8.50
2022-11-19T08:10:20.167Z,8.60
2022-11-19T08:12:52.478Z,8.60
2022-11-19T08:15:23.174Z,8.70
2022-11-19T08:18:14.028Z,8.70
2022-11-19T08:20:45.622Z,8.70
2022-11-19T08:23:16.824Z,8.80
2022-11-19T08:25:48.322Z,8.70
2022-11-19T08:28:19.040Z,8.60
2022-11-19T08:30:49.667Z,8.50
2022-11-19T08:33:20.421Z,8.40
2022-11-19T08:35:52.857Z,8.50
2022-11-19T08:38:23.734Z,8.40
2022-11-19T08:40:56.839Z,8.40
2022-11-19T08:43:27.565Z,8.60
2022-11-19T08:45:58.218Z,8.60
2022-11-19T08:48:28.843Z,8.60
2022-11-19T08:50:59.560Z,8.70
2022-11-19T08:53:30.237Z,8.80
2022-11-19T08:56:01.121Z,8.80
2022-11-19T08:58:32.050Z,8.90
2022-11-19T09:01:04.243Z,8.90
2022-11-19T09:03:36.747Z,8.90
2022-11-19T09:06:09.812Z,8.90
2022-11-19T09:08:40.753Z,9.10
2022-11-19T09:11:14.437Z,9.00
2022-11-19T09:13:45.249Z,8.90
2022-11-19T09:16:16.015Z,8.90
2022-11-19T09:18:46.944Z,9.10
2022-11-19T09:21:17.615Z,9.10
2022-11-19T09:23:48.522Z,9.00
2022-11-19T09:26:20.250Z,8.90
2022-11-19T09:28:51.819Z,8.90
2022-11-19T09:31:22.965Z,8.80
2022-11-19T09:33:55.664Z,8.90
2022-11-19T09:36:26.278Z,8.90
2022-11-19T09:39:01.912Z,8.90
2022-11-19T09:41:47.716Z,8.90
2022-11-19T09:44:44.252Z,9.00
2022-11-19T09:47:21.658Z,9.10
2022-11-19T09:52:34.939Z,9.40
2022-11-19T09:55:06.955Z,9.40
2022-11-19T09:57:40.754Z,9.50
2022-11-19T10:00:18.447Z,9.50
2022-11-19T10:02:49.248Z,9.50
2022-11-19T10:05:25.828Z,9.60
2022-11-19T10:07:59.827Z,9.60
2022-11-19T10:10:36.872Z,9.40
2022-11-19T10:13:16.651Z,9.40
2022-11-19T10:15:55.248Z,9.50
2022-11-19T10:18:30.360Z,9.60
2022-11-19T10:21:06.393Z,9.70
2022-11-19T10:23:46.394Z,9.60
2022-11-19T10:26:18.869Z,9.60
2022-11-19T10:28:56.511Z,9.50
2022-11-19T10:31:36.770Z,9.80
2022-11-19T10:34:12.351Z,9.70
2022-11-19T10:37:03.023Z,9.90
2022-11-19T10:39:36.939Z,9.80
2022-11-19T10:42:14.725Z,9.90
2022-11-19T10:44:48.029Z,10.10
2022-11-19T10:47:22.622Z,10.40
2022-11-19T10:49:55.746Z,10.20
2022-11-19T10:52:30.872Z,10.20
2022-11-19T10:55:08.907Z,10.10
2022-11-19T10:57:41.111Z,10.00
2022-11-19T11:00:15.387Z,10.20
2022-11-19T11:02:50.400Z,10.00
2022-11-19T11:05:21.743Z,10.00
2022-11-19T11:07:57.866Z,10.00
2022-11-19T11:10:38.926Z,9.90
2022-11-19T11:13:51.810Z,10.00
2022-11-19T11:16:25.627Z,10.10
2022-11-19T11:18:58.107Z,10.10
2022-11-19T11:21:38.404Z,10.20
2022-11-19T11:24:33.140Z,10.30
2022-11-19T11:27:23.299Z,10.20
2022-11-19T11:30:13.114Z,10.20
2022-11-19T11:35:38.758Z,10.20
2022-11-19T11:38:10.723Z,10.40
2022-11-19T11:40:41.437Z,10.40
2022-11-19T11:46:01.095Z,10.50
2022-11-19T11:51:27.552Z,10.50
2022-11-19T11:54:13.802Z,10.50
2022-11-19T11:56:42.482Z,10.40
2022-11-19T11:59:27.766Z,10.30
2022-11-19T12:02:00.786Z,10.30
2022-11-19T12:04:31.728Z,10.20
2022-11-19T12:07:10.245Z,10.30
2022-11-19T12:09:45.484Z,10.30
2022-11-19T12:12:20.964Z,10.30
2022-11-19T12:14:56.166Z,10.20
2022-11-19T12:17:39.735Z,10.20
2022-11-19T12:20:24.394Z,10.40
2022-11-19T12:23:02.341Z,10.30
2022-11-19T12:25:37.581Z,10.40
2022-11-19T12:28:23.372Z,10.20
2022-11-19T12:30:59.270Z,10.30
2022-11-19T12:36:16.151Z,10.30
2022-11-19T12:38:52.298Z,10.20
2022-11-19T12:41:40.320Z,10.10
2022-11-19T12:44:15.154Z,10.00
2022-11-19T12:46:53.042Z,10.10
2022-11-19T12:49:38.844Z,10.20
2022-11-19T12:52:18.032Z,10.20
2022-11-19T12:54:55.491Z,10.20
2022-11-19T12:57:37.431Z,10.10
2022-11-19T13:00:14.567Z,10.00
2022-11-19T13:02:51.838Z,9.90
2022-11-19T13:05:25.900Z,9.90
2022-11-19T13:10:40.227Z,10.00
2022-11-19T13:13:14.344Z,10.00
2022-11-19T13:15:49.742Z,10.20
2022-11-19T13:18:22.270Z,10.40
2022-11-19T13:20:55.811Z,10.40
2022-11-19T13:26:10.267Z,10.40
2022-11-19T13:28:44.241Z,10.50
2022-11-19T13:31:18.034Z,10.50
2022-11-19T13:33:52.527Z,10.70
2022-11-19T13:36:26.578Z,10.60
2022-11-19T13:39:00.581Z,10.20
2022-11-19T13:41:34.161Z,9.90
2022-11-19T13:44:23.585Z,9.60
2022-11-19T13:46:57.246Z,9.40
2022-11-19T13:49:30.730Z,9.20
2022-11-19T13:52:04.479Z,9.00
2022-11-19T13:54:38.562Z,9.10
2022-11-19T13:57:11.024Z,8.90
2022-11-19T13:59:44.708Z,8.90
2022-11-19T14:02:52.603Z,8.90
2022-11-19T14:06:14.845Z,8.80
2022-11-19T14:09:03.780Z,8.90
2022-11-19T14:12:06.550Z,9.10
2022-11-19T14:15:03.292Z,9.30
2022-11-19T14:17:55.119Z,9.50
2022-11-19T14:20:58.676Z,9.50
2022-11-19T14:24:06.278Z,9.60
2022-11-19T14:27:22.185Z,9.50
2022-11-19T14:30:01.472Z,9.30
2022-11-19T14:32:35.140Z,9.10
2022-11-19T14:35:38.372Z,9.10
2022-11-19T14:41:30.556Z,8.70
2022-11-19T14:47:36.754Z,8.40
2022-11-19T14:50:10.761Z,8.40
2022-11-19T14:52:47.471Z,8.30
2022-11-19T14:55:24.931Z,8.30
2022-11-19T15:00:40.476Z,8.20
2022-11-19T15:03:16.397Z,8.20
2022-11-19T15:05:49.812Z,8.20
2022-11-19T15:08:49.697Z,8.30
2022-11-19T15:11:21.838Z,8.30
2022-11-19T15:14:12.951Z,8.30
2022-11-19T15:16:46.904Z,8.20
2022-11-19T15:22:17.525Z,8.40
2022-11-19T15:25:15.959Z,8.40
2022-11-19T15:27:55.131Z,8.40
2022-11-19T15:30:29.389Z,8.30
2022-11-19T15:33:22.286Z,8.20
2022-11-19T15:36:12.232Z,8.30
2022-11-19T15:38:47.494Z,8.30
2022-11-19T15:41:22.217Z,8.20
2022-11-19T15:43:55.974Z,8.20
2022-11-19T15:46:33.608Z,8.20
2022-11-19T15:49:09.102Z,8.30
2022-11-19T15:51:49.252Z,8.30
2022-11-19T15:54:20.459Z,8.30
2022-11-19T15:56:52.335Z,8.30
2022-11-19T15:59:23.976Z,8.40
2022-11-19T16:02:02.121Z,8.40
2022-11-19T16:04:37.720Z,8.30
2022-11-19T16:07:10.656Z,8.30
2022-11-19T16:09:41.877Z,8.20
2022-11-19T16:12:38.419Z,8.20
2022-11-19T16:15:42.428Z,8.30
2022-11-19T16:18:18.075Z,8.30
2022-11-19T16:20:52.238Z,8.30
2022-11-19T16:23:25.577Z,8.30
2022-11-19T16:25:56.757Z,8.30
2022-11-19T16:28:30.603Z,8.20
2022-11-19T16:31:05.254Z,8.20
2022-11-19T16:33:37.054Z,8.30
2022-11-19T16:36:16.299Z,8.20
2022-11-19T16:38:49.850Z,8.20
2022-11-19T16:41:40.965Z,8.10
2022-11-19T16:44:14.233Z,8.10
2022-11-19T16:46:45.488Z,8.00
2022-11-19T16:49:31.239Z,7.90
2022-11-19T16:52:03.363Z,7.80
2022-11-19T16:54:48.997Z,7.80
2022-11-19T16:57:22.034Z,7.80
2022-11-19T16:59:54.773Z,7.80
2022-11-19T17:02:28.482Z,7.70
2022-11-19T17:05:05.867Z,7.70
2022-11-19T17:07:36.974Z,7.70
2022-11-19T17:10:23.042Z,7.70
2022-11-19T17:12:54.107Z,7.60
2022-11-19T17:18:20.552Z,7.50
2022-11-19T17:20:57.182Z,7.50
2022-11-19T17:23:30.295Z,7.50
2022-11-19T17:26:03.744Z,7.50
2022-11-19T17:28:38.350Z,7.50
2022-11-19T17:31:17.056Z,7.40
2022-11-19T17:33:58.440Z,7.40
2022-11-19T17:36:29.232Z,7.40
2022-11-19T17:39:00.152Z,7.50
2022-11-19T17:44:34.763Z,7.50
2022-11-19T17:47:20.787Z,7.50
2022-11-19T17:49:40.197Z,7.40
2022-11-19T17:52:20.419Z,7.50
2022-11-19T17:54:50.485Z,7.50
2022-11-19T17:57:21.266Z,7.60
2022-11-19T17:59:52.015Z,7.60
2022-11-19T18:02:23.653Z,7.50
2022-11-19T18:04:54.722Z,7.50
2022-11-19T18:07:26.542Z,7.50
2022-11-19T18:09:57.282Z,7.60
2022-11-19T18:12:27.969Z,7.60
2022-11-19T18:15:01.919Z,7.50
2022-11-19T18:20:10.964Z,7.40
2022-11-19T18:22:41.784Z,7.40
2022-11-19T18:25:18.284Z,7.50
2022-11-19T18:27:49.094Z,7.50
2022-11-19T18:30:20.071Z,7.50
2022-11-19T18:32:50.703Z,7.50
2022-11-19T18:35:24.202Z,7.50
2022-11-19T18:37:54.849Z,7.60
2022-11-19T18:40:25.617Z,7.60
2022-11-19T18:43:14.654Z,7.60
2022-11-19T18:45:45.854Z,7.50
2022-11-19T18:48:16.950Z,7.50
2022-11-19T18:50:47.941Z,7.50
2022-11-19T18:53:19.508Z,7.50
2022-11-19T18:55:50.527Z,7.50
2022-11-19T18:58:21.506Z,7.50
2022-11-19T19:00:52.022Z,7.50
2022-11-19T19:03:22.613Z,7.50
2022-11-19T19:05:53.185Z,7.50
2022-11-19T19:08:23.704Z,7.50
2022-11-19T19:10:56.351Z,7.60
2022-11-19T19:13:26.897Z,7.60
2022-11-19T19:16:03.290Z,7.60
2022-11-19T19:18:33.935Z,7.60
2022-11-19T19:21:04.584Z,7.60
2022-11-19T19:23:35.298Z,7.50
2022-11-19T19:26:07.770Z,7.60
2022-11-19T19:28:39.051Z,7.60
2022-11-19T19:31:14.934Z,7.60
2022-11-19T19:33:42.627Z,7.60
2022-11-19T19:36:13.801Z,7.60
2022-11-19T19:38:44.601Z,7.60
2022-11-19T19:41:17.186Z,7.50
2022-11-19T19:43:48.851Z,7.60
2022-11-19T19:48:58.887Z,7.60
2022-11-19T19:51:33.017Z,7.60
2022-11-19T19:54:04.518Z,7.60
2022-11-19T19:56:35.999Z,7.60
2022-11-19T19:59:06.853Z,7.60
2022-11-19T20:01:39.499Z,7.60
2022-11-19T20:04:12.474Z,7.60
2022-11-19T20:09:32.726Z,7.60
2022-11-19T20:12:03.666Z,7.60
2022-11-19T20:14:34.482Z,7.60
2022-11-19T20:17:05.254Z,7.60
2022-11-19T20:19:36.176Z,7.60
2022-11-19T20:22:06.889Z,7.60
2022-11-19T20:24:40.313Z,7.60
2022-11-19T20:27:12.261Z,7.60
2022-11-19T20:29:42.967Z,7.60
2022-11-19T20:32:13.618Z,7.60
2022-11-19T20:34:44.538Z,7.60
2022-11-19T20:37:15.179Z,7.60
2022-11-19T20:39:45.986Z,7.60
2022-11-19T20:42:34.102Z,7.50
2022-11-19T20:45:04.965Z,7.50
2022-11-19T20:47:35.546Z,7.50
2022-11-19T20:50:06.558Z,7.50
2022-11-19T20:52:37.168Z,7.50
2022-11-19T20:55:10.336Z,7.40
2022-11-19T20:57:41.005Z,7.40
2022-11-19T21:00:14.622Z,7.40
2022-11-19T21:02:45.301Z,7.50
2022-11-19T21:05:16.936Z,7.50
2022-11-19T21:07:48.096Z,7.50
2022-11-19T21:10:19.565Z,7.40
2022-11-19T21:13:01.991Z,7.40
2022-11-19T21:18:09.513Z,7.40
2022-11-19T21:23:17.718Z,7.30
2022-11-19T21:25:48.922Z,7.40
2022-11-19T21:28:20.166Z,7.30
2022-11-19T21:30:54.572Z,7.30
2022-11-19T21:33:26.515Z,7.30
2022-11-19T21:35:58.573Z,7.20
2022-11-19T21:38:29.197Z,7.20
2022-11-19T21:41:00.335Z,7.20
2022-11-19T21:43:32.495Z,7.20
2022-11-19T21:46:03.127Z,7.20
2022-11-19T21:48:33.844Z,7.20
2022-11-19T21:51:08.385Z,7.20
2022-11-19T21:53:39.176Z,7.20
2022-11-19T21:56:11.211Z,7.20
2022-11-19T21:58:41.747Z,7.20
2022-11-19T22:01:12.683Z,7.20
2022-11-19T22:03:43.329Z,7.20
2022-11-19T22:06:14.530Z,7.20
2022-11-19T22:08:45.307Z,7.20
2022-11-19T22:11:31.840Z,7.20
2022-11-19T22:14:05.550Z,7.10
2022-11-19T22:16:38.607Z,7.10
2022-11-19T22:19:09.714Z,7.10
2022-11-19T22:21:40.395Z,7.10
2022-11-19T22:24:13.325Z,7.10
2022-11-19T22:26:43.901Z,7.10
2022-11-19T22:29:14.541Z,7.10
2022-11-19T22:31:45.124Z,7.10
2022-11-19T22:34:15.954Z,7.10
2022-11-19T22:36:46.438Z,7.10
2022-11-19T22:39:18.573Z,7.10
2022-11-19T22:41:49.332Z,7.20
2022-11-19T22:44:20.129Z,7.20
2022-11-19T22:46:50.999Z,7.20
2022-11-19T22:49:21.734Z,7.10
2022-11-19T22:51:52.535Z,7.10
2022-11-19T22:54:23.264Z,7.20
2022-11-19T22:56:53.824Z,7.20
2022-11-19T22:59:25.367Z,7.20
2022-11-19T23:01:55.923Z,7.20
2022-11-19T23:04:27.495Z,7.20
2022-11-19T23:06:58.093Z,7.20
2022-11-19T23:09:28.650Z,7.20
2022-11-19T23:12:16.870Z,7.20
2022-11-19T23:14:47.473Z,7.20
2022-11-19T23:17:18.099Z,7.20
2022-11-19T23:19:48.666Z,7.20
2022-11-19T23:22:19.317Z,7.20
2022-11-19T23:24:49.978Z,7.20
2022-11-19T23:27:22.268Z,7.10
2022-11-19T23:29:52.712Z,7.20
2022-11-19T23:32:23.213Z,7.20
2022-11-19T23:34:53.755Z,7.20
2022-11-19T23:37:24.328Z,7.20
2022-11-19T23:39:54.841Z,7.20
2022-11-19T23:42:25.396Z,7.10
2022-11-19T23:44:55.955Z,7.10
2022-11-19T23:47:26.529Z,7.10
2022-11-19T23:49:57.684Z,7.10
2022-11-19T23:52:28.210Z,7.10
2022-11-19T23:54:58.834Z,7.10
2022-11-19T23:57:29.379Z,7.10
2022-11-19T23:59:59.891Z,7.00
